Terminal Aerodrome Forecast
Issued by NWS

Home | Current Version | Previous Version | Text Only | Print | Product List | Glossary On
Versions: 1 2 3 4 5 6 7 8 9 10 11 12 13 14 15 16
000
FTUS44 KTSA 261725
TAFRVS
TAF
KRVS 261725Z 2618/2718 10007KT P6SM BKN250
     FM262100 14011G17KT P6SM SCT050 BKN250
     FM270000 15010KT P6SM VCTS OVC035CB
      TEMPO 2701/2704 3SM TSRA OVC015CB
     FM270400 VRB04KT P6SM VCTS BKN030CB
     FM270900 32006KT P6SM OVC015=

USA.gov is the U.S. government's official web portal to all federal, state and local government web resources and services.